Shady Lake, New Jersey
Current Conditions -  °F | °C
As of 3:53 PM on Saturday 25 Oct 2014 (Local Time) from KFWN Reporting Station
Clear Clear  
Wind Chill: 20°   Ceiling: Unl
Heat Index: 20°   Visibility: 10mi
Dew Point:   Wind: 7mph
Humidity: 39%   Direction: 240°WSW
Pressure: 29.67"   Gusts: NA
Location:  41.0879°N, 74.3771°W
Report Text: KFWN 251953Z AUTO 24006KT 10SM CLR 20/06 A2967 RMK AO2 SLP046 T02000056
Loading
Personal Weather Stations






























Interactive Weather Map
Tropical Storm Tracking
New forecast layout! Learn more

10-Day Weather Forecast

Advertisements
Track Severe Weather on mobile